createdAt,value
2019-05-12T00:00:20.251Z,6.26
2019-05-12T00:01:20.274Z,6.30
2019-05-12T00:02:20.232Z,6.27
2019-05-12T00:03:20.229Z,6.28
2019-05-12T00:04:20.220Z,6.28
2019-05-12T00:05:20.294Z,6.26
2019-05-12T00:06:20.208Z,6.31
2019-05-12T00:07:20.202Z,6.27
2019-05-12T00:08:20.195Z,6.26
2019-05-12T00:09:20.190Z,6.20
2019-05-12T00:10:20.181Z,6.20
2019-05-12T00:11:20.175Z,6.27
2019-05-12T00:12:20.168Z,6.17
2019-05-12T00:13:20.163Z,6.17
2019-05-12T00:14:20.159Z,6.20
2019-05-12T00:15:20.157Z,6.16
2019-05-12T00:16:20.144Z,6.11
2019-05-12T00:17:20.141Z,6.12
2019-05-12T00:18:20.130Z,6.11
2019-05-12T00:19:20.123Z,6.11
2019-05-12T00:20:20.117Z,6.02
2019-05-12T00:21:20.114Z,6.11
2019-05-12T00:22:20.104Z,6.05
2019-05-12T00:23:27.433Z,6.07
2019-05-12T00:24:20.093Z,6.05
2019-05-12T00:25:20.086Z,6.22
2019-05-12T00:26:20.079Z,6.04
2019-05-12T00:27:20.072Z,6.08
2019-05-12T00:28:20.065Z,6.07
2019-05-12T00:29:20.058Z,6.01
2019-05-12T00:30:20.051Z,6.01
2019-05-12T00:31:20.046Z,5.99
2019-05-12T00:32:20.038Z,5.94
2019-05-12T00:33:20.034Z,5.97
2019-05-12T00:34:20.026Z,5.91
2019-05-12T00:35:20.020Z,6.04
2019-05-12T00:36:20.012Z,5.97
2019-05-12T00:37:20.007Z,5.87
2019-05-12T00:38:19.998Z,5.93
2019-05-12T00:39:19.994Z,5.89
2019-05-12T00:40:19.987Z,5.83
2019-05-12T00:41:19.980Z,5.94
2019-05-12T00:42:19.972Z,5.86
2019-05-12T00:43:19.969Z,5.84
2019-05-12T00:44:19.962Z,5.82
2019-05-12T00:45:19.955Z,5.86
2019-05-12T00:46:19.945Z,5.80
2019-05-12T00:47:19.940Z,5.79
2019-05-12T00:48:19.934Z,5.86
2019-05-12T00:49:19.927Z,5.84
2019-05-12T00:50:19.919Z,5.82
2019-05-12T00:51:19.912Z,5.76
2019-05-12T00:52:19.906Z,5.73
2019-05-12T00:53:19.899Z,5.75
2019-05-12T00:54:19.901Z,5.75
2019-05-12T00:55:19.886Z,5.76
2019-05-12T00:56:19.879Z,5.72
2019-05-12T00:57:19.871Z,5.76
2019-05-12T00:58:19.884Z,5.76
2019-05-12T00:59:19.857Z,5.72
2019-05-12T01:00:19.851Z,5.73
2019-05-12T01:01:19.845Z,5.72
2019-05-12T01:02:19.838Z,5.61
2019-05-12T01:03:19.829Z,5.65
2019-05-12T01:04:19.823Z,5.61
2019-05-12T01:05:19.818Z,5.61
2019-05-12T01:06:19.817Z,5.62
2019-05-12T01:07:19.804Z,5.66
2019-05-12T01:08:19.800Z,5.64
2019-05-12T01:09:19.791Z,5.65
2019-05-12T01:10:19.783Z,5.69
2019-05-12T01:11:19.778Z,5.65
2019-05-12T01:12:19.771Z,5.71
2019-05-12T01:13:19.762Z,5.56
2019-05-12T01:14:19.756Z,5.56
2019-05-12T01:15:19.754Z,5.61
2019-05-12T01:16:19.741Z,5.59
2019-05-12T01:17:19.736Z,5.53
2019-05-12T01:18:19.727Z,5.54
2019-05-12T01:19:19.721Z,5.57
2019-05-12T01:20:19.717Z,5.47
2019-05-12T01:21:19.709Z,5.50
2019-05-12T01:22:19.701Z,5.43
2019-05-12T01:23:23.208Z,5.51
2019-05-12T01:24:19.689Z,5.47
2019-05-12T01:25:19.681Z,5.43
2019-05-12T01:26:19.674Z,5.46
2019-05-12T01:27:19.665Z,5.46
2019-05-12T01:28:19.660Z,5.48
2019-05-12T01:29:19.653Z,5.46
2019-05-12T01:30:19.647Z,5.39
2019-05-12T01:31:19.638Z,5.43
2019-05-12T01:32:19.631Z,5.46
2019-05-12T01:33:19.629Z,5.39
2019-05-12T01:34:19.617Z,5.44
2019-05-12T01:35:19.611Z,5.39
2019-05-12T01:36:19.603Z,5.39
2019-05-12T01:37:19.622Z,5.41
2019-05-12T01:38:19.589Z,5.41
2019-05-12T01:39:19.583Z,5.44
2019-05-12T01:40:19.577Z,5.43
2019-05-12T01:41:19.570Z,5.43
2019-05-12T01:42:19.562Z,5.46
2019-05-12T01:43:21.221Z,5.46
2019-05-12T01:44:19.555Z,5.46
2019-05-12T01:45:19.543Z,5.54
2019-05-12T01:46:19.534Z,5.59
2019-05-12T01:47:19.528Z,5.53
2019-05-12T01:48:19.522Z,5.57
2019-05-12T01:49:19.514Z,5.50
2019-05-12T01:50:19.510Z,5.56
2019-05-12T01:51:19.499Z,5.62
2019-05-12T01:52:19.519Z,5.66
2019-05-12T01:53:19.485Z,5.66
2019-05-12T01:54:19.479Z,5.61
2019-05-12T01:55:19.472Z,5.65
2019-05-12T01:56:19.466Z,5.73
2019-05-12T01:57:19.458Z,5.72
2019-05-12T01:58:19.672Z,5.80
2019-05-12T01:59:19.444Z,5.79
2019-05-12T02:00:19.438Z,5.80
2019-05-12T02:01:19.432Z,5.80
2019-05-12T02:02:19.423Z,5.79
2019-05-12T02:03:19.420Z,5.86
2019-05-12T02:04:19.415Z,5.83
2019-05-12T02:05:19.405Z,5.84
2019-05-12T02:06:19.400Z,5.82
2019-05-12T02:07:19.391Z,5.79
2019-05-12T02:08:19.384Z,5.86
2019-05-12T02:09:19.376Z,5.86
2019-05-12T02:10:19.369Z,5.82
2019-05-12T02:11:19.362Z,5.76
2019-05-12T02:12:19.357Z,5.76
2019-05-12T02:13:19.349Z,5.79
2019-05-12T02:14:19.342Z,5.73
2019-05-12T02:15:19.335Z,5.75
2019-05-12T02:16:19.328Z,5.71
2019-05-12T02:17:19.323Z,5.76
2019-05-12T02:18:19.314Z,5.62
2019-05-12T02:19:19.309Z,5.68
2019-05-12T02:20:19.302Z,5.65
2019-05-12T02:21:19.296Z,5.65
2019-05-12T02:22:19.287Z,5.68
2019-05-12T02:23:19.280Z,5.68
2019-05-12T02:24:26.711Z,5.56
2019-05-12T02:25:19.270Z,5.53
2019-05-12T02:26:19.261Z,5.51
2019-05-12T02:27:19.253Z,5.61
2019-05-12T02:28:19.247Z,5.62
2019-05-12T02:29:19.239Z,5.68
2019-05-12T02:30:20.278Z,5.66
2019-05-12T02:31:20.622Z,5.69
2019-05-12T02:32:19.219Z,5.71
2019-05-12T02:33:19.223Z,5.73
2019-05-12T02:34:19.206Z,5.64
2019-05-12T02:35:19.199Z,5.71
2019-05-12T02:36:19.192Z,5.72
2019-05-12T02:37:19.185Z,5.72
2019-05-12T02:38:19.179Z,5.73
2019-05-12T02:39:19.172Z,5.69
2019-05-12T02:40:19.165Z,5.68
2019-05-12T02:41:19.158Z,5.65
2019-05-12T02:42:19.154Z,5.61
2019-05-12T02:43:19.145Z,5.71
2019-05-12T02:44:19.137Z,5.61
2019-05-12T02:45:19.132Z,5.68
2019-05-12T02:46:19.124Z,5.62
2019-05-12T02:47:19.118Z,5.65
2019-05-12T02:48:19.113Z,5.66
2019-05-12T02:49:19.115Z,5.64
2019-05-12T02:50:19.097Z,5.71
2019-05-12T02:51:19.089Z,5.66
2019-05-12T02:52:19.082Z,5.76
2019-05-12T02:53:19.076Z,5.76
2019-05-12T02:54:19.071Z,5.79
2019-05-12T02:55:19.063Z,5.76
2019-05-12T02:56:19.057Z,5.75
2019-05-12T02:57:19.048Z,5.71
2019-05-12T02:58:19.047Z,5.66
2019-05-12T02:59:19.036Z,5.68
2019-05-12T03:00:19.028Z,5.65
2019-05-12T03:01:19.022Z,5.68
2019-05-12T03:02:19.015Z,5.59
2019-05-12T03:03:19.012Z,5.65
2019-05-12T03:04:19.001Z,5.69
2019-05-12T03:05:18.994Z,5.66
2019-05-12T03:06:18.989Z,5.61
2019-05-12T03:07:18.980Z,5.62
2019-05-12T03:08:18.973Z,5.69
2019-05-12T03:09:18.968Z,5.73
2019-05-12T03:10:18.963Z,5.65
2019-05-12T03:11:18.955Z,5.65
2019-05-12T03:12:18.945Z,5.65
2019-05-12T03:13:18.939Z,5.73
2019-05-12T03:14:18.933Z,5.62
2019-05-12T03:15:18.926Z,5.65
2019-05-12T03:16:18.921Z,5.69
2019-05-12T03:17:18.912Z,5.76
2019-05-12T03:18:18.907Z,5.72
2019-05-12T03:19:18.897Z,5.76
2019-05-12T03:20:18.892Z,5.73
2019-05-12T03:21:18.886Z,5.82
2019-05-12T03:22:18.876Z,5.80
2019-05-12T03:23:19.503Z,5.75
2019-05-12T03:24:18.869Z,5.79
2019-05-12T03:25:24.640Z,5.80
2019-05-12T03:26:18.850Z,5.86
2019-05-12T03:27:18.842Z,5.87
2019-05-12T03:28:18.837Z,5.83
2019-05-12T03:29:18.831Z,5.89
2019-05-12T03:30:19.848Z,5.86
2019-05-12T03:31:25.269Z,5.86
2019-05-12T03:32:18.838Z,5.76
2019-05-12T03:33:20.069Z,5.84
2019-05-12T03:34:20.455Z,5.80
2019-05-12T03:35:18.831Z,5.80
2019-05-12T03:36:18.854Z,5.86
2019-05-12T03:37:18.855Z,5.87
2019-05-12T03:38:18.769Z,5.89
2019-05-12T03:39:18.766Z,5.90
2019-05-12T03:40:18.754Z,5.87
2019-05-12T03:41:18.747Z,5.93
2019-05-12T03:42:18.742Z,5.93
2019-05-12T03:43:18.737Z,5.93
2019-05-12T03:44:18.728Z,6.04
2019-05-12T03:45:18.721Z,6.02
2019-05-12T03:46:18.714Z,5.97
2019-05-12T03:47:18.707Z,5.97
2019-05-12T03:48:18.702Z,6.12
2019-05-12T03:49:18.694Z,6.11
2019-05-12T03:50:18.688Z,6.16
2019-05-12T03:51:18.681Z,6.16
2019-05-12T03:52:18.674Z,6.09
2019-05-12T03:53:18.671Z,6.11
2019-05-12T03:54:18.668Z,6.12
2019-05-12T03:55:34.362Z,6.12
2019-05-12T03:56:18.650Z,6.20
2019-05-12T03:57:18.642Z,6.17
2019-05-12T03:58:18.635Z,6.16
2019-05-12T03:59:18.635Z,6.09
2019-05-12T04:00:18.624Z,6.20
2019-05-12T04:01:18.613Z,6.09
2019-05-12T04:02:18.609Z,6.01
2019-05-12T04:03:18.603Z,6.02
2019-05-12T04:04:18.596Z,5.94
2019-05-12T04:05:18.588Z,6.07
2019-05-12T04:06:18.587Z,5.99
2019-05-12T04:07:18.574Z,6.01
2019-05-12T04:08:18.569Z,5.97
2019-05-12T04:09:18.573Z,6.04
2019-05-12T04:10:18.554Z,5.98
2019-05-12T04:11:18.551Z,5.93
2019-05-12T04:12:18.540Z,5.90
2019-05-12T04:13:18.535Z,5.94
2019-05-12T04:14:18.527Z,5.90
2019-05-12T04:15:18.530Z,5.84
2019-05-12T04:16:18.514Z,5.84
2019-05-12T04:17:18.511Z,5.84
2019-05-12T04:18:18.503Z,5.80
2019-05-12T04:19:18.496Z,5.73
2019-05-12T04:20:18.492Z,5.65
2019-05-12T04:21:18.483Z,5.68
2019-05-12T04:22:18.479Z,5.65
2019-05-12T04:23:18.474Z,5.71
2019-05-12T04:24:18.463Z,5.64
2019-05-12T04:25:18.454Z,5.65
2019-05-12T04:26:18.458Z,5.62
2019-05-12T04:27:18.453Z,5.59
2019-05-12T04:28:18.439Z,5.56
2019-05-12T04:29:18.429Z,5.64
2019-05-12T04:30:18.420Z,5.65
2019-05-12T04:31:18.415Z,5.64
2019-05-12T04:32:18.415Z,5.73
2019-05-12T04:33:18.402Z,5.72
2019-05-12T04:34:19.337Z,5.76
2019-05-12T04:35:18.386Z,5.79
2019-05-12T04:36:18.379Z,5.86
2019-05-12T04:37:18.374Z,5.82
2019-05-12T04:38:18.369Z,5.89
2019-05-12T04:39:18.360Z,5.87
2019-05-12T04:40:18.354Z,5.94
2019-05-12T04:41:19.988Z,5.99
2019-05-12T04:42:18.341Z,6.05
2019-05-12T04:43:18.338Z,6.22
2019-05-12T04:44:18.329Z,6.19
2019-05-12T04:45:18.322Z,6.24
2019-05-12T04:46:18.320Z,6.26
2019-05-12T04:47:18.309Z,6.19
2019-05-12T04:48:21.274Z,6.24
2019-05-12T04:49:18.296Z,6.27
2019-05-12T04:50:18.295Z,6.28
2019-05-12T04:51:18.285Z,6.24
2019-05-12T04:52:18.276Z,6.30
2019-05-12T04:53:18.270Z,6.30
2019-05-12T04:54:18.263Z,6.26
2019-05-12T04:55:18.255Z,6.31
2019-05-12T04:56:20.569Z,6.36
2019-05-12T04:57:20.957Z,6.39
2019-05-12T04:58:18.239Z,6.45
2019-05-12T04:59:18.231Z,6.49
2019-05-12T05:00:18.223Z,6.46
2019-05-12T05:01:18.217Z,6.45
2019-05-12T05:02:18.211Z,6.41
2019-05-12T05:03:18.203Z,6.41
2019-05-12T05:04:18.197Z,6.48
2019-05-12T05:05:18.191Z,6.44
2019-05-12T05:06:18.184Z,6.41
2019-05-12T05:07:18.178Z,6.48
2019-05-12T05:08:19.763Z,6.42
2019-05-12T05:09:18.166Z,6.51
2019-05-12T05:10:18.158Z,6.49
2019-05-12T05:11:18.153Z,6.45
2019-05-12T05:12:18.146Z,6.52
2019-05-12T05:13:18.140Z,6.60
2019-05-12T05:14:18.132Z,6.69
2019-05-12T05:15:18.127Z,6.75
2019-05-12T05:16:18.121Z,6.70
2019-05-12T05:17:18.114Z,6.70
2019-05-12T05:18:18.106Z,6.60
2019-05-12T05:19:18.102Z,6.67
2019-05-12T05:20:18.093Z,6.69
2019-05-12T05:21:18.089Z,6.70
2019-05-12T05:22:18.080Z,6.69
2019-05-12T05:23:18.075Z,6.74
2019-05-12T05:24:18.069Z,6.77
2019-05-12T05:25:18.064Z,6.88
2019-05-12T05:26:24.504Z,6.88
2019-05-12T05:27:18.050Z,6.79
2019-05-12T05:28:18.043Z,6.84
2019-05-12T05:29:18.038Z,6.78
2019-05-12T05:30:18.030Z,6.87
2019-05-12T05:31:18.023Z,7.03
2019-05-12T05:32:18.018Z,7.21
2019-05-12T05:33:19.925Z,7.13
2019-05-12T05:34:18.005Z,7.20
2019-05-12T05:35:18.000Z,7.21
2019-05-12T05:36:19.764Z,7.29
2019-05-12T05:37:17.988Z,7.40
2019-05-12T05:38:20.724Z,7.50
2019-05-12T05:39:17.975Z,7.56
2019-05-12T05:40:19.875Z,7.54
2019-05-12T05:41:17.966Z,7.66
2019-05-12T05:42:22.111Z,7.54
2019-05-12T05:43:18.752Z,7.70
2019-05-12T05:44:17.944Z,7.73
2019-05-12T05:45:23.424Z,7.70
2019-05-12T05:46:17.931Z,7.75
2019-05-12T05:47:19.892Z,7.69
2019-05-12T05:48:17.919Z,7.79
2019-05-12T05:49:17.916Z,7.83
2019-05-12T05:50:18.374Z,7.85
2019-05-12T05:51:17.902Z,7.77
2019-05-12T05:52:17.897Z,7.79
2019-05-12T05:53:19.733Z,7.72
2019-05-12T05:54:22.781Z,7.88
2019-05-12T05:55:20.247Z,7.87
2019-05-12T05:56:18.407Z,7.91
2019-05-12T05:57:20.044Z,7.87
2019-05-12T05:58:17.866Z,7.87
2019-05-12T05:59:21.927Z,7.95
2019-05-12T06:00:22.832Z,7.88
2019-05-12T06:01:17.844Z,8.03
2019-05-12T06:02:25.349Z,8.05
2019-05-12T06:03:23.118Z,8.09
2019-05-12T06:04:17.826Z,8.19
2019-05-12T06:05:19.958Z,8.09
2019-05-12T06:06:17.814Z,8.13
2019-05-12T06:07:17.810Z,8.30
2019-05-12T06:08:20.769Z,8.31
2019-05-12T06:09:17.800Z,8.46
2019-05-12T06:10:17.791Z,8.63
2019-05-12T06:11:23.805Z,8.84
2019-05-12T06:12:17.782Z,8.85
2019-05-12T06:13:21.180Z,8.84
2019-05-12T06:14:17.771Z,8.92
2019-05-12T06:15:17.765Z,9.00
2019-05-12T06:16:20.641Z,8.79
2019-05-12T06:17:17.757Z,8.71
2019-05-12T06:18:17.748Z,8.71
2019-05-12T06:19:17.743Z,8.67
2019-05-12T06:20:17.740Z,8.51
2019-05-12T06:21:17.735Z,8.51
2019-05-12T06:22:18.411Z,8.60
2019-05-12T06:23:17.723Z,8.64
2019-05-12T06:24:20.128Z,8.52
2019-05-12T06:25:17.715Z,8.56
2019-05-12T06:26:21.125Z,8.42
2019-05-12T06:27:21.093Z,8.51
2019-05-12T06:28:17.695Z,8.53
2019-05-12T06:29:20.810Z,8.61
2019-05-12T06:30:17.684Z,8.64
2019-05-12T06:31:18.869Z,8.74
2019-05-12T06:32:17.674Z,8.78
2019-05-12T06:33:22.771Z,8.81
2019-05-12T06:34:20.812Z,8.94
2019-05-12T06:35:17.660Z,9.02
2019-05-12T06:36:22.120Z,9.02
2019-05-12T06:37:17.646Z,9.03
2019-05-12T06:38:17.640Z,9.04
2019-05-12T06:39:20.605Z,9.16
2019-05-12T06:40:17.631Z,9.14
2019-05-12T06:41:20.476Z,9.14
2019-05-12T06:42:17.619Z,9.04
2019-05-12T06:43:17.613Z,9.13
2019-05-12T06:44:19.528Z,9.16
2019-05-12T06:45:17.604Z,9.13
2019-05-12T06:46:20.639Z,9.10
2019-05-12T06:47:17.594Z,9.14
2019-05-12T06:48:19.436Z,9.23
2019-05-12T06:49:17.801Z,9.29
2019-05-12T06:50:17.578Z,9.47
2019-05-12T06:51:22.694Z,9.47
2019-05-12T06:52:17.567Z,9.58
2019-05-12T06:53:20.089Z,9.41
2019-05-12T06:54:17.556Z,9.46
2019-05-12T06:55:17.554Z,9.50
2019-05-12T06:56:19.738Z,9.51
2019-05-12T06:57:24.433Z,9.65
2019-05-12T06:58:26.397Z,9.61
2019-05-12T06:59:17.530Z,9.73
2019-05-12T07:00:22.153Z,9.74
2019-05-12T07:01:19.312Z,9.99
2019-05-12T07:02:17.515Z,10.07
2019-05-12T07:03:19.544Z,10.05
2019-05-12T07:04:17.503Z,10.23
2019-05-12T07:05:17.500Z,10.44
2019-05-12T07:06:19.634Z,10.42
2019-05-12T07:07:17.490Z,10.63
2019-05-12T07:08:26.357Z,10.64
2019-05-12T07:09:24.926Z,10.68
2019-05-12T07:10:35.736Z,10.44
2019-05-12T07:11:17.471Z,10.34
2019-05-12T07:12:17.468Z,10.44
2019-05-12T07:13:23.238Z,10.48
2019-05-12T07:14:22.366Z,10.44
2019-05-12T07:15:17.498Z,10.53
2019-05-12T07:16:22.947Z,10.72
2019-05-12T07:17:17.444Z,10.89
2019-05-12T07:18:17.803Z,10.96
2019-05-12T07:19:22.728Z,11.05
2019-05-12T07:21:17.869Z,11.17
2019-05-12T07:28:50.066Z,11.14
2019-05-12T07:29:50.061Z,11.14
2019-05-12T07:37:43.604Z,11.69
2019-05-12T07:38:43.394Z,11.70
2019-05-12T07:39:45.382Z,11.81
2019-05-12T07:41:25.216Z,11.86
2019-05-12T07:42:31.469Z,11.81
2019-05-12T07:44:14.189Z,11.94
2019-05-12T07:47:10.461Z,12.02
2019-05-12T07:50:58.420Z,12.43
2019-05-12T07:55:53.266Z,16.42
2019-05-12T07:57:58.699Z,15.14
2019-05-12T07:58:57.193Z,15.06
2019-05-12T07:59:55.205Z,15.42
2019-05-12T08:01:02.400Z,16.12
2019-05-12T08:01:55.205Z,15.52
2019-05-12T08:02:55.206Z,16.09
2019-05-12T08:03:59.356Z,16.38
2019-05-12T08:04:55.210Z,16.72
2019-05-12T08:05:57.499Z,16.53
2019-05-12T08:06:55.216Z,16.47
2019-05-12T08:07:55.222Z,16.57
2019-05-12T08:08:58.817Z,16.65
2019-05-12T08:09:55.236Z,16.32
2019-05-12T08:10:56.067Z,15.36
2019-05-12T08:11:55.238Z,13.89
2019-05-12T08:12:59.590Z,12.98
2019-05-12T08:13:55.246Z,12.70
2019-05-12T08:14:59.319Z,12.31
2019-05-12T08:15:56.370Z,12.22
2019-05-12T08:16:55.257Z,12.28
2019-05-12T08:17:59.269Z,12.67
2019-05-12T08:18:55.266Z,11.99
2019-05-12T08:19:55.268Z,11.81
2019-05-12T08:20:55.270Z,11.83
2019-05-12T08:21:55.277Z,12.00
2019-05-12T08:22:59.687Z,12.78
2019-05-12T08:23:55.280Z,12.86
2019-05-12T08:24:55.281Z,13.15
2019-05-12T08:25:55.285Z,14.92
2019-05-12T08:26:59.532Z,16.28
2019-05-12T08:28:11.053Z,15.84
2019-05-12T08:28:55.289Z,15.14
2019-05-12T08:30:01.159Z,14.77
2019-05-12T08:30:55.294Z,14.63
2019-05-12T08:31:55.298Z,14.36
2019-05-12T08:33:02.483Z,13.47
2019-05-12T08:33:55.302Z,12.85
2019-05-12T08:34:55.305Z,12.39
2019-05-12T08:35:55.473Z,12.36
2019-05-12T08:36:57.820Z,12.21
2019-05-12T08:37:55.323Z,12.25
2019-05-12T08:38:55.316Z,11.94
2019-05-12T08:40:03.293Z,11.91
2019-05-12T08:40:55.342Z,11.86
2019-05-12T08:41:55.315Z,11.95
2019-05-12T08:42:59.466Z,11.78
2019-05-12T08:43:58.314Z,11.80
2019-05-12T08:44:55.318Z,12.29
2019-05-12T08:45:59.945Z,13.90
2019-05-12T08:46:56.630Z,15.11
2019-05-12T08:47:55.322Z,15.58
2019-05-12T08:48:57.858Z,15.04
2019-05-12T08:49:58.425Z,14.65
2019-05-12T08:50:55.330Z,15.02
2019-05-12T08:52:00.024Z,16.05
2019-05-12T08:52:55.324Z,17.23
2019-05-12T08:54:02.396Z,17.68
2019-05-12T08:54:55.329Z,18.04
2019-05-12T08:55:55.334Z,17.20
2019-05-12T08:56:59.350Z,16.26
2019-05-12T08:57:55.335Z,15.43
2019-05-12T08:58:55.337Z,14.65
2019-05-12T09:00:03.066Z,14.04
2019-05-12T09:00:55.342Z,13.71
2019-05-12T09:01:55.399Z,14.33
2019-05-12T09:02:55.350Z,15.39
2019-05-12T09:03:55.362Z,15.98
2019-05-12T09:04:55.775Z,16.41
2019-05-12T09:05:55.356Z,16.66
2019-05-12T09:06:59.572Z,16.99
2019-05-12T09:07:55.365Z,17.05
2019-05-12T09:08:55.367Z,17.97
2019-05-12T09:09:55.371Z,18.35
2019-05-12T09:10:55.640Z,19.02
2019-05-12T09:11:55.398Z,18.99
2019-05-12T09:12:55.384Z,19.00
2019-05-12T09:14:00.478Z,19.31
2019-05-12T09:14:55.396Z,19.54
2019-05-12T09:15:55.400Z,19.18
2019-05-12T09:17:02.633Z,18.90
2019-05-12T09:17:56.950Z,17.72
2019-05-12T09:18:55.525Z,17.08
2019-05-12T09:20:06.048Z,15.97
2019-05-12T09:20:55.885Z,15.59
2019-05-12T09:21:55.437Z,14.82
2019-05-12T09:23:00.679Z,14.18
2019-05-12T09:23:56.076Z,13.93
2019-05-12T09:24:58.498Z,14.91
2019-05-12T09:25:57.264Z,15.68
2019-05-12T09:26:58.994Z,16.54
2019-05-12T09:27:55.473Z,17.29
2019-05-12T09:28:55.478Z,16.02
2019-05-12T09:29:59.053Z,15.17
2019-05-12T09:30:55.492Z,15.00
2019-05-12T09:31:59.237Z,14.81
2019-05-12T09:32:56.088Z,15.46
2019-05-12T09:33:55.513Z,16.94
2019-05-12T09:34:58.202Z,16.97
2019-05-12T09:35:55.517Z,16.46
2019-05-12T09:36:59.745Z,17.38
2019-05-12T09:37:55.527Z,17.56
2019-05-12T09:39:01.549Z,16.50
2019-05-12T09:39:55.539Z,15.58
2019-05-12T09:41:00.862Z,15.28
2019-05-12T09:41:55.548Z,15.00
2019-05-12T09:43:00.337Z,14.73
2019-05-12T09:43:55.557Z,14.50
2019-05-12T09:45:00.072Z,14.70
2019-05-12T09:45:56.335Z,16.05
2019-05-12T09:46:55.573Z,16.96
2019-05-12T09:47:58.870Z,16.47
2019-05-12T09:48:55.582Z,15.47
2019-05-12T09:49:55.587Z,15.61
2019-05-12T09:51:00.371Z,16.46
2019-05-12T09:51:55.595Z,16.09
2019-05-12T09:53:00.507Z,15.76
2019-05-12T09:53:55.672Z,16.46
2019-05-12T09:54:55.608Z,17.02
2019-05-12T09:55:58.387Z,16.39
2019-05-12T09:56:59.668Z,15.90
2019-05-12T09:57:55.621Z,15.62
2019-05-12T09:59:01.417Z,16.42
2019-05-12T09:59:59.451Z,16.75
2019-05-12T10:00:55.635Z,17.19
2019-05-12T10:01:55.643Z,17.59
2019-05-12T10:02:59.381Z,16.99
2019-05-12T10:03:55.650Z,17.60
2019-05-12T10:05:00.413Z,17.63
2019-05-12T10:05:55.659Z,16.32
2019-05-12T10:06:55.665Z,15.82
2019-05-12T10:07:55.668Z,15.27
2019-05-12T10:08:55.691Z,14.89
2019-05-12T10:09:58.885Z,14.63
2019-05-12T10:10:55.683Z,14.73
2019-05-12T10:12:00.598Z,15.62
2019-05-12T10:12:55.692Z,16.05
2019-05-12T10:14:00.214Z,16.65
2019-05-12T10:14:55.699Z,17.04
2019-05-12T10:15:58.635Z,18.19
2019-05-12T10:16:55.708Z,17.86
2019-05-12T10:18:00.107Z,18.07
2019-05-12T10:18:55.717Z,17.85
2019-05-12T10:19:58.098Z,16.58
2019-05-12T10:20:55.725Z,16.04
2019-05-12T10:21:59.455Z,15.61
2019-05-12T10:22:55.736Z,15.22
2019-05-12T10:24:00.089Z,15.54
2019-05-12T10:24:58.617Z,15.40
2019-05-12T10:25:55.745Z,14.48
2019-05-12T10:26:55.751Z,14.12
2019-05-12T10:27:55.755Z,13.90
2019-05-12T10:28:58.323Z,14.78
2019-05-12T10:29:55.762Z,15.91
2019-05-12T10:30:56.991Z,16.42
2019-05-12T10:31:55.775Z,16.68
2019-05-12T10:32:55.773Z,17.33
2019-05-12T10:33:58.146Z,17.60
2019-05-12T10:34:55.779Z,17.95
2019-05-12T10:35:59.390Z,18.16
2019-05-12T10:36:55.786Z,17.86
2019-05-12T10:38:00.163Z,18.05
2019-05-12T10:38:55.802Z,17.94
2019-05-12T10:39:55.799Z,18.38
2019-05-12T10:40:55.803Z,17.78
2019-05-12T10:41:55.807Z,18.29
2019-05-12T10:42:55.813Z,18.16
2019-05-12T10:43:57.755Z,17.97
2019-05-12T10:44:56.732Z,17.64
2019-05-12T10:45:55.826Z,16.68
2019-05-12T10:46:55.836Z,17.15
2019-05-12T10:47:55.834Z,16.21
2019-05-12T10:48:55.843Z,15.76
2019-05-12T10:49:55.844Z,15.40
2019-05-12T10:50:55.848Z,15.00
2019-05-12T10:51:55.853Z,14.91
2019-05-12T10:52:55.858Z,14.92
2019-05-12T10:54:01.975Z,14.78
2019-05-12T10:54:55.866Z,14.51
2019-05-12T10:55:55.872Z,14.48
2019-05-12T10:56:55.876Z,15.55
2019-05-12T10:58:01.444Z,15.35
2019-05-12T10:58:55.885Z,15.62
2019-05-12T10:59:55.884Z,15.00
2019-05-12T11:00:58.921Z,15.88
2019-05-12T11:01:55.889Z,16.47
2019-05-12T11:02:55.892Z,17.15
2019-05-12T11:03:55.896Z,17.48
2019-05-12T11:04:55.899Z,17.83
2019-05-12T11:06:02.560Z,18.19
2019-05-12T11:06:55.904Z,18.55
2019-05-12T11:08:00.193Z,18.77
2019-05-12T11:08:55.911Z,18.28
2019-05-12T11:09:55.914Z,17.48
2019-05-12T11:11:01.097Z,17.02
2019-05-12T11:11:55.919Z,16.50
2019-05-12T11:12:59.091Z,16.58
2019-05-12T11:13:55.925Z,16.74
2019-05-12T11:14:55.929Z,16.68
2019-05-12T11:15:55.932Z,16.58
2019-05-12T11:16:55.934Z,16.43
2019-05-12T11:17:55.936Z,16.26
2019-05-12T11:19:00.373Z,16.10
2019-05-12T11:19:55.942Z,16.10
2019-05-12T11:20:55.943Z,15.86
2019-05-12T11:21:55.945Z,15.73
2019-05-12T11:22:55.948Z,15.68
2019-05-12T11:23:55.953Z,15.68
2019-05-12T11:24:55.983Z,16.04
2019-05-12T11:25:55.954Z,15.65
2019-05-12T11:26:55.956Z,15.84
2019-05-12T11:27:55.959Z,15.64
2019-05-12T11:28:55.959Z,15.58
2019-05-12T11:29:55.960Z,15.52
2019-05-12T11:30:55.961Z,15.59
2019-05-12T11:31:55.965Z,15.64
2019-05-12T11:32:55.967Z,15.67
2019-05-12T11:33:55.967Z,15.68
2019-05-12T11:34:55.967Z,15.51
2019-05-12T11:35:55.970Z,15.43
2019-05-12T11:36:55.970Z,15.57
2019-05-12T11:37:55.970Z,15.75
2019-05-12T11:38:55.972Z,15.59
2019-05-12T11:39:55.971Z,15.73
2019-05-12T11:40:55.971Z,15.80
2019-05-12T11:41:55.973Z,15.59
2019-05-12T11:43:00.912Z,15.37
2019-05-12T11:43:55.983Z,15.43
2019-05-12T11:44:55.974Z,15.51
2019-05-12T11:45:55.977Z,15.62
2019-05-12T11:46:55.978Z,15.43
2019-05-12T11:47:59.211Z,15.54
2019-05-12T11:48:55.977Z,15.43
2019-05-12T11:49:58.483Z,15.55
2019-05-12T11:50:55.977Z,15.49
2019-05-12T11:51:55.980Z,15.43
2019-05-12T11:52:55.977Z,14.85
2019-05-12T11:53:55.980Z,14.97
2019-05-12T11:54:55.979Z,15.00
2019-05-12T11:55:55.980Z,15.27
2019-05-12T11:56:55.983Z,15.61
2019-05-12T11:58:00.427Z,15.82
2019-05-12T11:58:55.979Z,16.02
2019-05-12T12:00:01.985Z,15.73
2019-05-12T12:00:58.789Z,15.64
2019-05-12T12:01:56.201Z,15.90
2019-05-12T12:02:55.981Z,16.09
2019-05-12T12:03:55.981Z,16.41
2019-05-12T12:04:55.979Z,16.57
2019-05-12T12:05:55.982Z,16.74
2019-05-12T12:06:55.982Z,16.76
2019-05-12T12:07:56.242Z,16.66
2019-05-12T12:08:55.981Z,16.36
2019-05-12T12:09:59.320Z,16.04
2019-05-12T12:10:55.981Z,16.16
2019-05-12T12:12:02.483Z,16.10
2019-05-12T12:12:55.981Z,16.12
2019-05-12T12:14:00.245Z,15.91
2019-05-12T12:14:55.984Z,15.55
2019-05-12T12:16:00.659Z,15.15
2019-05-12T12:16:55.982Z,15.04
2019-05-12T12:17:56.040Z,15.03
2019-05-12T12:19:02.140Z,15.04
2019-05-12T12:19:55.986Z,15.18
2019-05-12T12:21:02.900Z,15.15
2019-05-12T12:21:55.982Z,14.94
2019-05-12T12:23:00.121Z,14.99
2019-05-12T12:23:55.982Z,15.15
2019-05-12T12:24:55.984Z,15.22
2019-05-12T12:25:55.984Z,15.31
2019-05-12T12:26:55.983Z,15.17
2019-05-12T12:27:55.982Z,14.99
2019-05-12T12:28:55.983Z,14.88
2019-05-12T12:29:55.982Z,14.96
2019-05-12T12:31:00.282Z,14.86
2019-05-12T12:31:55.981Z,14.78
2019-05-12T12:33:00.163Z,14.73
2019-05-12T12:33:55.978Z,14.63
2019-05-12T12:34:55.983Z,14.45
2019-05-12T12:35:59.352Z,14.22
2019-05-12T12:36:55.979Z,14.11
2019-05-12T12:37:55.978Z,14.18
2019-05-12T12:38:55.976Z,14.20
2019-05-12T12:39:55.976Z,14.20
2019-05-12T12:40:55.975Z,14.30
2019-05-12T12:42:00.381Z,14.35
2019-05-12T12:42:55.972Z,14.35
2019-05-12T12:43:55.972Z,14.17
2019-05-12T12:44:58.904Z,14.28
2019-05-12T12:45:55.970Z,14.47
2019-05-12T12:47:00.418Z,14.35
2019-05-12T12:47:55.968Z,14.35
2019-05-12T12:49:00.356Z,14.28
2019-05-12T12:49:55.966Z,14.28
2019-05-12T12:50:55.965Z,14.51
2019-05-12T12:51:55.964Z,14.60
2019-05-12T12:52:55.960Z,14.84
2019-05-12T12:53:55.961Z,14.94
2019-05-12T12:54:59.326Z,15.07
2019-05-12T12:55:58.572Z,15.22
2019-05-12T12:57:00.223Z,15.33
2019-05-12T12:57:55.957Z,15.42
2019-05-12T12:58:55.956Z,15.44
2019-05-12T12:59:55.955Z,15.44
2019-05-12T13:00:56.988Z,15.37
2019-05-12T13:01:59.072Z,15.61
2019-05-12T13:02:55.951Z,15.90
2019-05-12T13:03:59.362Z,16.00
2019-05-12T13:04:55.948Z,16.04
2019-05-12T13:05:55.952Z,16.17
2019-05-12T13:06:55.948Z,16.17
2019-05-12T13:07:55.946Z,16.12
2019-05-12T13:08:55.946Z,16.01
2019-05-12T13:10:04.636Z,15.95
2019-05-12T13:10:55.944Z,15.88
2019-05-12T13:11:55.950Z,16.04
2019-05-12T13:12:59.480Z,16.26
2019-05-12T13:13:55.942Z,16.53
2019-05-12T13:14:55.943Z,16.60
2019-05-12T13:15:55.943Z,16.42
2019-05-12T13:16:56.318Z,16.53
2019-05-12T13:17:55.939Z,16.60
2019-05-12T13:18:55.940Z,16.21
2019-05-12T13:19:58.694Z,15.92
2019-05-12T13:20:58.064Z,15.90
2019-05-12T13:21:55.939Z,15.72
2019-05-12T13:22:55.938Z,15.61
2019-05-12T13:23:55.938Z,15.24
2019-05-12T13:24:58.148Z,15.47
2019-05-12T13:25:55.938Z,15.68
2019-05-12T13:26:55.938Z,15.84
2019-05-12T13:27:55.937Z,16.04
2019-05-12T13:28:55.934Z,16.15
2019-05-12T13:29:55.934Z,16.10
2019-05-12T13:31:08.281Z,16.09
2019-05-12T13:31:55.935Z,16.09